KSMOKSBA

Guest
Details From KSMO - Santa Monica Muni
To KSBA - Santa Barbara Mun
Flight Number -
Tags Generated
Created
Modified
Stats Distance 73 nm / 136 km
Max Altitude 0 ft / 0 m
Waypoints 2
Social Downloads 1
Likes 0
Share VATSIM

Download

Looking for another format? Having issues loading an existing format? Contact us
Advertisement - Login to hide

Notes

Generated

Route

KSMO KSBA

ID Type Via Altitude Latitude Longitude Leg Dist Tot Dist Heading (true) Name
O KSMO APT - 0 ft / 0 m 34.01098˚ -118.45709˚ - 0 nm - -
O KSBA APT - 0 ft / 0 m 34.43077˚ -119.84036˚ 73 nm 73 nm 291° / 290° Santa Barbara Mun

Altitude Profile

Advertisement - Login to hide

KSMO

Details ICAO KSMO (SMO)
Name SANTA MONICA MUNI
Region United States
Timezone America/Los_Angeles (UTC-7.0)
Stats Elevation 177 ft / 54 m (AMSL)
Location 34.015847° -118.451329°
Runways 1
Magnetic Variation 11.991° E

METAR

KSMO 231451Z 25003KT 10SM FEW011 SCT023 OVC031 15/12 A2997 RMK AO2 SLP148 T01500122 52009

Decode

TAF

TAF AMD KSMO 231320Z 2313/2412 VRB03KT P6SM BKN011 OVC035 FM231500 23006KT P6SM BKN040 FM232100 24009KT P6SM SKC FM240400 VRB03KT P6SM BKN025 FM241000 VRB03KT P6SM OVC035

Decode

Departure Runways

ID Width Length Bearing (true) Bearing (mag) Surface Threshold Offset Overrun Length
03 151 ft / 46 m 4,978 ft / 1,517 m 44.45° 32.46° Asphalt 0 ft / 0 m 0 ft / 0 m
21 151 ft / 46 m 4,978 ft / 1,517 m 224.46° 212.47° Asphalt 0 ft / 0 m 0 ft / 0 m

KSBA

Details ICAO KSBA (SBA)
Name Santa Barbara Mun
Region United States
Timezone America/Los_Angeles (UTC-7.0)
Stats Elevation 13 ft / 4 m (AMSL)
Location 34.425961° -119.840724°
Runways 3
Magnetic Variation 12.333° E

METAR

KSBA 231453Z 00000KT 10SM OVC036 15/11 A2997 RMK AO2 SLP147 T01500111 53013

Decode

TAF

KSBA 231319Z 2313/2412 VRB03KT P6SM OVC035 FM231700 17006KT P6SM OVC040 FM232200 25008KT P6SM SCT050 FM240300 VRB03KT P6SM SKC FM240800 VRB03KT P6SM BKN009 FM241100 VRB03KT P6SM OVC012

Decode

Destination Runways

ID Width Length Bearing (true) Bearing (mag) Surface Threshold Offset Overrun Length
07 151 ft / 46 m 6,047 ft / 1,843 m 88.54° 76.21° Asphalt 0 ft / 0 m 0 ft / 0 m
15L 75 ft / 23 m 4,182 ft / 1,275 m 165.71° 153.38° Asphalt 217 ft / 66 m 0 ft / 0 m
15R 98 ft / 30 m 4,186 ft / 1,276 m 165.71° 153.38° Asphalt 0 ft / 0 m 0 ft / 0 m
25 151 ft / 46 m 6,047 ft / 1,843 m 268.55° 256.22° Asphalt 0 ft / 0 m 0 ft / 0 m
33L 98 ft / 30 m 4,186 ft / 1,276 m 345.71° 333.38° Asphalt 0 ft / 0 m 0 ft / 0 m
33R 75 ft / 23 m 4,182 ft / 1,275 m 345.72° 333.39° Asphalt 0 ft / 0 m 0 ft / 0 m

Approach Navaids

Runway Type Ident Frequency Range Bearing (true) Bearing (mag) Slope Elevation
07 Localiser ISBA 110.30 MHz 18 nm / 33 km 88.51° 76.18° - 16 ft / 5 m (AMSL)
07 Glidescope ISBA 110.30 MHz 10 nm / 19 km 89.00° 76.67° 3.00° 13 ft / 4 m (AMSL)
07 DME ISBA 110.30 MHz 18 nm / 33 km - - - 29 ft / 9 m (AMSL)

Popular Alternatives